createdAt,value
2022-10-02T00:00:08.137Z,940.42
2022-10-02T00:02:43.410Z,896.65
2022-10-02T00:05:25.046Z,914.80
2022-10-02T00:10:21.462Z,872.00
2022-10-02T00:12:50.567Z,899.38
2022-10-02T00:15:19.657Z,899.58
2022-10-02T00:17:48.639Z,867.00
2022-10-02T00:20:17.507Z,899.63
2022-10-02T00:22:52.464Z,910.38
2022-10-02T00:25:25.558Z,925.42
2022-10-02T00:27:58.432Z,855.28
2022-10-02T00:30:25.591Z,885.17
2022-10-02T00:33:13.313Z,886.22
2022-10-02T00:35:43.366Z,884.20
2022-10-02T00:38:16.357Z,887.47
2022-10-02T00:40:50.818Z,899.75
2022-10-02T00:43:32.908Z,891.45
2022-10-02T00:46:12.458Z,891.35
2022-10-02T00:48:49.335Z,892.42
2022-10-02T00:51:22.134Z,913.28
2022-10-02T00:54:07.893Z,906.20
2022-10-02T00:56:43.561Z,900.25
2022-10-02T00:59:27.340Z,900.05
2022-10-02T01:02:00.582Z,906.42
2022-10-02T01:04:32.602Z,886.33
2022-10-02T01:06:59.771Z,897.03
2022-10-02T01:09:26.983Z,899.17
2022-10-02T01:11:54.118Z,888.38
2022-10-02T01:14:21.198Z,909.60
2022-10-02T01:16:48.806Z,921.85
2022-10-02T01:19:26.516Z,907.75
2022-10-02T01:21:56.969Z,883.95
2022-10-02T01:24:28.048Z,901.20
2022-10-02T01:26:55.235Z,907.78
2022-10-02T01:29:22.510Z,905.00
2022-10-02T01:31:49.690Z,884.63
2022-10-02T01:34:16.928Z,902.92
2022-10-02T01:36:44.091Z,877.22
2022-10-02T01:39:11.388Z,887.05
2022-10-02T01:41:42.015Z,907.83
2022-10-02T01:44:09.135Z,862.90
2022-10-02T01:46:47.648Z,886.30
2022-10-02T01:49:20.544Z,904.58
2022-10-02T01:51:47.593Z,910.03
2022-10-02T01:54:14.624Z,884.00
2022-10-02T01:57:00.555Z,903.67
2022-10-02T01:59:27.598Z,901.63
2022-10-02T02:02:10.501Z,883.15
2022-10-02T02:04:37.589Z,883.90
2022-10-02T02:07:07.690Z,885.80
2022-10-02T02:09:43.520Z,918.35
2022-10-02T02:12:21.471Z,901.47
2022-10-02T02:14:51.331Z,911.40
2022-10-02T02:17:18.414Z,912.95
2022-10-02T02:20:01.997Z,924.63
2022-10-02T02:22:30.391Z,880.13
2022-10-02T02:25:07.873Z,908.67
2022-10-02T02:27:38.576Z,912.90
2022-10-02T02:30:11.931Z,820.15
2022-10-02T02:32:42.059Z,861.28
2022-10-02T02:35:15.502Z,869.67
2022-10-02T02:37:43.340Z,898.50
2022-10-02T02:40:13.989Z,831.67
2022-10-02T02:42:46.818Z,852.60
2022-10-02T02:45:17.063Z,829.10
2022-10-02T02:47:48.529Z,867.58
2022-10-02T02:52:45.553Z,890.42
2022-10-02T02:55:31.524Z,889.30
2022-10-02T02:58:08.400Z,829.58
2022-10-02T03:00:35.582Z,862.95
2022-10-02T03:03:03.135Z,877.08
2022-10-02T03:05:30.889Z,878.42
2022-10-02T03:08:00.334Z,853.63
2022-10-02T03:10:40.634Z,883.80
2022-10-02T03:13:27.472Z,896.33
2022-10-02T03:16:19.241Z,900.67
2022-10-02T03:21:21.604Z,852.47
2022-10-02T03:24:07.386Z,850.95
2022-10-02T03:26:45.146Z,877.53
2022-10-02T03:29:19.763Z,901.03
2022-10-02T03:31:47.263Z,883.63
2022-10-02T03:34:14.519Z,888.65
2022-10-02T03:36:41.737Z,882.60
2022-10-02T03:39:25.869Z,904.08
2022-10-02T03:41:53.979Z,890.45
2022-10-02T03:44:21.106Z,902.63
2022-10-02T03:46:48.261Z,892.35
2022-10-02T03:49:15.364Z,905.03
2022-10-02T03:51:42.471Z,907.65
2022-10-02T03:54:16.652Z,910.15
2022-10-02T03:56:46.508Z,915.50
2022-10-02T03:59:17.062Z,909.50
2022-10-02T04:01:49.221Z,886.87
2022-10-02T04:04:24.406Z,888.20
2022-10-02T04:07:01.519Z,890.00
2022-10-02T04:09:30.702Z,901.05
2022-10-02T04:12:04.400Z,903.92
2022-10-02T04:14:35.924Z,881.38
2022-10-02T04:19:34.266Z,915.40
2022-10-02T04:22:01.294Z,851.78
2022-10-02T04:24:42.766Z,873.58
2022-10-02T04:27:19.029Z,905.97
2022-10-02T04:29:51.397Z,898.38
2022-10-02T04:32:19.822Z,894.10
2022-10-02T04:34:47.018Z,910.33
2022-10-02T04:37:29.319Z,898.38
2022-10-02T04:40:11.254Z,899.47
2022-10-02T04:42:46.774Z,906.38
2022-10-02T04:45:13.813Z,841.20
2022-10-02T04:48:06.964Z,838.13
2022-10-02T04:51:00.894Z,874.38
2022-10-02T04:53:30.741Z,890.78
2022-10-02T04:56:04.157Z,898.63
2022-10-02T04:58:38.028Z,854.97
2022-10-02T05:01:27.789Z,896.00
2022-10-02T05:03:54.814Z,858.85
2022-10-02T05:06:51.283Z,887.05
2022-10-02T05:09:18.325Z,897.72
2022-10-02T05:11:49.866Z,902.08
2022-10-02T05:16:59.180Z,920.70
2022-10-02T05:19:36.996Z,921.78
2022-10-02T05:22:25.483Z,923.08
2022-10-02T05:24:58.627Z,914.08
2022-10-02T05:27:26.061Z,882.53
2022-10-02T05:30:07.203Z,910.92
2022-10-02T05:32:37.013Z,839.13
2022-10-02T05:35:04.098Z,883.42
2022-10-02T05:37:37.269Z,878.28
2022-10-02T05:40:11.242Z,903.25
2022-10-02T05:42:43.316Z,908.10
2022-10-02T05:45:17.568Z,905.95
2022-10-02T05:47:46.361Z,852.17
2022-10-02T05:50:18.160Z,876.33
2022-10-02T05:52:54.416Z,882.70
2022-10-02T05:55:38.415Z,905.35
2022-10-02T05:58:24.267Z,913.13
2022-10-02T06:01:09.976Z,852.75
2022-10-02T06:03:43.759Z,883.70
2022-10-02T06:06:12.108Z,931.10
2022-10-02T06:08:41.586Z,925.78
2022-10-02T06:11:12.121Z,924.28
2022-10-02T06:13:48.199Z,909.53
2022-10-02T06:16:20.565Z,909.83
2022-10-02T06:18:51.435Z,897.17
2022-10-02T06:21:47.751Z,891.35
2022-10-02T06:24:21.577Z,911.72
2022-10-02T06:26:54.699Z,915.50
2022-10-02T06:29:30.858Z,914.10
2022-10-02T06:32:00.751Z,921.85
2022-10-02T06:34:29.042Z,906.97
2022-10-02T06:37:09.014Z,913.03
2022-10-02T06:40:00.516Z,893.92
2022-10-02T06:42:32.583Z,902.53
2022-10-02T06:45:09.121Z,895.90
2022-10-02T06:47:36.152Z,903.60
2022-10-02T06:50:21.279Z,856.55
2022-10-02T06:52:57.187Z,822.88
2022-10-02T06:55:33.060Z,814.22
2022-10-02T06:58:08.709Z,826.03
2022-10-02T07:00:39.980Z,847.72
2022-10-02T07:03:30.455Z,864.78
2022-10-02T07:05:57.508Z,833.92
2022-10-02T07:08:37.864Z,825.50
2022-10-02T07:11:04.934Z,820.03
2022-10-02T07:13:44.179Z,847.63
2022-10-02T07:16:20.774Z,827.85
2022-10-02T07:19:06.681Z,859.50
2022-10-02T07:21:33.719Z,881.33
2022-10-02T07:24:05.367Z,889.13
2022-10-02T07:26:52.703Z,879.55
2022-10-02T07:29:38.596Z,885.83
2022-10-02T07:32:17.516Z,860.08
2022-10-02T07:34:51.923Z,891.25
2022-10-02T07:37:22.142Z,857.35
2022-10-02T07:39:49.203Z,854.13
2022-10-02T07:42:21.746Z,892.30
2022-10-02T07:44:48.786Z,899.60
2022-10-02T07:47:18.993Z,870.38
2022-10-02T07:49:51.514Z,865.28
2022-10-02T07:52:18.539Z,845.38
2022-10-02T07:54:57.393Z,864.72
2022-10-02T07:57:36.643Z,873.55
2022-10-02T08:00:14.967Z,887.17
2022-10-02T08:02:57.848Z,892.67
2022-10-02T08:05:27.423Z,817.05
2022-10-02T08:07:58.416Z,828.88
2022-10-02T08:10:27.405Z,854.25
2022-10-02T08:12:55.935Z,871.70
2022-10-02T08:15:24.610Z,845.35
2022-10-02T08:17:54.951Z,874.30
2022-10-02T08:20:24.519Z,866.85
2022-10-02T08:25:25.056Z,821.17
2022-10-02T08:30:19.217Z,857.03
2022-10-02T08:32:47.929Z,814.97
2022-10-02T08:35:19.754Z,844.58
2022-10-02T08:38:10.074Z,808.00
2022-10-02T08:40:55.830Z,837.20
2022-10-02T08:43:29.187Z,842.78
2022-10-02T08:46:15.254Z,843.60
2022-10-02T08:48:55.247Z,848.90
2022-10-02T08:51:42.597Z,813.03
2022-10-02T08:54:22.033Z,855.88
2022-10-02T08:57:01.866Z,873.80
2022-10-02T08:59:31.922Z,786.13
2022-10-02T09:02:19.844Z,803.30
2022-10-02T09:04:49.964Z,767.88
2022-10-02T09:07:36.332Z,799.45
2022-10-02T09:10:21.496Z,840.08
2022-10-02T09:13:00.825Z,797.78
2022-10-02T09:15:39.349Z,830.38
2022-10-02T09:18:16.200Z,768.08
2022-10-02T09:20:43.332Z,804.30
2022-10-02T09:23:16.502Z,841.13
2022-10-02T09:25:43.531Z,804.05
2022-10-02T09:28:33.972Z,842.58
2022-10-02T09:31:14.260Z,849.88
2022-10-02T09:34:03.597Z,861.75
2022-10-02T09:36:42.627Z,875.47
2022-10-02T09:39:15.579Z,867.40
2022-10-02T09:41:59.153Z,856.00
2022-10-02T09:44:38.271Z,845.83
2022-10-02T09:47:24.125Z,862.53
2022-10-02T09:49:51.857Z,816.88
2022-10-02T09:52:42.010Z,801.10
2022-10-02T09:55:29.246Z,815.92
2022-10-02T09:57:59.309Z,819.17
2022-10-02T10:00:44.368Z,803.50
2022-10-02T10:03:30.480Z,784.47
2022-10-02T10:06:16.349Z,800.28
2022-10-02T10:08:55.644Z,796.67
2022-10-02T10:11:22.679Z,765.78
2022-10-02T10:13:55.953Z,800.03
2022-10-02T10:16:35.124Z,800.03
2022-10-02T10:19:23.696Z,744.45
2022-10-02T10:21:53.782Z,776.80
2022-10-02T10:24:32.747Z,801.83
2022-10-02T10:27:24.165Z,809.45
2022-10-02T10:29:57.808Z,815.25
2022-10-02T10:32:43.592Z,814.30
2022-10-02T10:35:29.418Z,803.97
2022-10-02T10:38:23.253Z,773.42
2022-10-02T10:41:11.040Z,814.00
2022-10-02T10:43:41.979Z,794.53
2022-10-02T10:46:12.193Z,820.47
2022-10-02T10:48:48.543Z,816.85
2022-10-02T10:51:33.563Z,781.03
2022-10-02T10:54:22.578Z,786.30
2022-10-02T10:57:00.196Z,706.22
2022-10-02T10:59:27.317Z,719.88
2022-10-02T11:01:54.373Z,740.38
2022-10-02T11:04:54.183Z,638.10
2022-10-02T11:07:39.962Z,645.05
2022-10-02T11:10:22.508Z,670.03
2022-10-02T11:12:53.797Z,653.80
2022-10-02T11:15:39.367Z,648.15
2022-10-02T11:18:30.955Z,664.15
2022-10-02T11:23:43.445Z,553.67
2022-10-02T11:26:16.281Z,571.42
2022-10-02T11:29:02.005Z,592.63
2022-10-02T11:31:42.754Z,599.53
2022-10-02T11:34:28.767Z,411.33
2022-10-02T11:37:12.123Z,578.10
2022-10-02T11:39:54.430Z,462.92
2022-10-02T11:42:33.669Z,467.70
2022-10-02T11:45:39.269Z,566.92
2022-10-02T11:48:12.398Z,554.47
2022-10-02T11:50:42.363Z,547.28
2022-10-02T11:53:18.488Z,564.83
2022-10-02T11:55:53.581Z,611.75
2022-10-02T11:58:28.372Z,471.90
2022-10-02T12:00:56.130Z,553.13
2022-10-02T12:03:23.270Z,568.08
2022-10-02T12:05:58.864Z,615.03
2022-10-02T12:08:46.993Z,596.55
2022-10-02T12:11:34.404Z,595.00
2022-10-02T12:14:04.846Z,605.08
2022-10-02T12:16:38.666Z,623.67
2022-10-02T12:20:01.374Z,551.38
2022-10-02T12:22:53.470Z,572.08
2022-10-02T12:25:49.127Z,597.42
2022-10-02T12:28:31.566Z,514.35
2022-10-02T12:31:01.610Z,542.75
2022-10-02T12:33:56.469Z,543.67
2022-10-02T12:36:34.790Z,595.28
2022-10-02T12:39:08.728Z,471.85
2022-10-02T12:41:41.791Z,560.05
2022-10-02T12:44:18.466Z,584.13
2022-10-02T12:47:03.716Z,592.42
2022-10-02T12:49:50.685Z,608.35
2022-10-02T12:52:29.717Z,618.60
2022-10-02T12:54:56.793Z,633.40
2022-10-02T12:58:02.521Z,527.05
2022-10-02T13:00:48.433Z,585.92
2022-10-02T13:03:18.640Z,602.63
2022-10-02T13:05:47.022Z,594.22
2022-10-02T13:08:25.348Z,589.63
2022-10-02T13:11:07.681Z,591.38
2022-10-02T13:13:41.455Z,610.05
2022-10-02T13:16:26.762Z,628.13
2022-10-02T13:18:55.376Z,623.13
2022-10-02T13:21:46.864Z,617.92
2022-10-02T13:24:32.623Z,640.75
2022-10-02T13:27:16.947Z,651.03
2022-10-02T13:29:47.833Z,650.78
2022-10-02T13:32:15.139Z,509.15
2022-10-02T13:34:45.352Z,575.10
2022-10-02T13:37:30.606Z,598.00
2022-10-02T13:40:17.217Z,553.72
2022-10-02T13:42:55.319Z,506.80
2022-10-02T13:45:29.887Z,662.60
2022-10-02T13:48:05.718Z,582.80
2022-10-02T13:50:42.107Z,622.30
2022-10-02T13:53:18.753Z,658.70
2022-10-02T13:55:48.149Z,574.17
2022-10-02T13:58:24.254Z,598.30
2022-10-02T14:01:04.593Z,609.20
2022-10-02T14:03:44.422Z,638.43
2022-10-02T14:06:12.219Z,675.53
2022-10-02T14:08:55.078Z,657.10
2022-10-02T14:11:29.908Z,674.03
2022-10-02T14:14:09.145Z,672.63
2022-10-02T14:16:45.690Z,681.78
2022-10-02T14:19:28.117Z,686.72
2022-10-02T14:21:55.297Z,680.40
2022-10-02T14:24:45.332Z,676.30
2022-10-02T14:27:31.099Z,658.50
2022-10-02T14:30:07.880Z,658.55
2022-10-02T14:32:56.722Z,615.17
2022-10-02T14:35:27.510Z,635.08
2022-10-02T14:38:10.991Z,623.65
2022-10-02T14:40:54.276Z,680.17
2022-10-02T14:43:21.374Z,695.25
2022-10-02T14:45:55.689Z,670.65
2022-10-02T14:48:22.814Z,659.38
2022-10-02T14:50:49.885Z,692.70
2022-10-02T14:53:29.342Z,692.33
2022-10-02T14:56:14.738Z,690.10
2022-10-02T14:58:56.518Z,685.42
2022-10-02T15:01:24.706Z,698.55
2022-10-02T15:04:07.953Z,598.38
2022-10-02T15:06:38.149Z,658.00
2022-10-02T15:09:08.074Z,692.10
2022-10-02T15:11:38.967Z,700.58
2022-10-02T15:14:09.464Z,657.47
2022-10-02T15:17:02.156Z,642.65
2022-10-02T15:19:35.184Z,631.78
2022-10-02T15:22:06.028Z,660.53
2022-10-02T15:24:40.686Z,669.35
2022-10-02T15:27:17.094Z,589.03
2022-10-02T15:29:53.302Z,662.20
2022-10-02T15:32:35.436Z,712.53
2022-10-02T15:35:08.726Z,579.05
2022-10-02T15:37:56.136Z,632.42
2022-10-02T15:40:29.854Z,694.03
2022-10-02T15:42:58.857Z,738.50
2022-10-02T15:45:27.645Z,734.40
2022-10-02T15:48:10.131Z,679.35
2022-10-02T15:50:55.826Z,664.25
2022-10-02T15:53:25.958Z,701.90
2022-10-02T15:55:55.884Z,738.47
2022-10-02T15:58:28.964Z,737.28
2022-10-02T16:01:02.464Z,742.05
2022-10-02T16:03:40.159Z,710.33
2022-10-02T16:06:13.574Z,562.78
2022-10-02T16:08:58.134Z,631.97
2022-10-02T16:11:25.267Z,697.83
2022-10-02T16:13:52.410Z,721.08
2022-10-02T16:16:25.959Z,759.25
2022-10-02T16:19:18.999Z,776.40
2022-10-02T16:21:57.077Z,781.22
2022-10-02T16:24:36.204Z,783.50
2022-10-02T16:27:03.268Z,797.47
2022-10-02T16:29:49.145Z,740.13
2022-10-02T16:32:26.555Z,794.95
2022-10-02T16:35:12.170Z,814.03
2022-10-02T16:38:02.561Z,810.38
2022-10-02T16:40:49.914Z,816.50
2022-10-02T16:43:23.348Z,825.35
2022-10-02T16:46:11.623Z,812.67
2022-10-02T16:48:44.214Z,818.58
2022-10-02T16:51:34.074Z,806.58
2022-10-02T16:54:03.938Z,709.47
2022-10-02T16:56:41.243Z,781.78
2022-10-02T16:59:14.868Z,813.58
2022-10-02T17:02:12.806Z,805.15
2022-10-02T17:04:38.321Z,815.72
2022-10-02T17:07:08.140Z,800.80
2022-10-02T17:09:41.241Z,809.78
2022-10-02T17:12:14.808Z,735.80
2022-10-02T17:14:55.696Z,789.33
2022-10-02T17:17:47.144Z,730.22
2022-10-02T17:20:26.235Z,756.35
2022-10-02T17:23:02.998Z,766.78
2022-10-02T17:25:33.000Z,766.20
2022-10-02T17:28:20.420Z,786.88
2022-10-02T17:30:47.547Z,755.25
2022-10-02T17:33:14.584Z,756.10
2022-10-02T17:35:48.108Z,806.15
2022-10-02T17:38:24.134Z,759.05
2022-10-02T17:41:06.515Z,767.45
2022-10-02T17:43:39.463Z,768.65
2022-10-02T17:46:25.366Z,738.13
2022-10-02T17:49:12.805Z,786.85
2022-10-02T17:51:53.649Z,782.40
2022-10-02T17:54:42.386Z,787.78
2022-10-02T17:57:31.026Z,763.03
2022-10-02T18:00:02.882Z,791.33
2022-10-02T18:02:33.892Z,771.17
2022-10-02T18:05:13.505Z,793.72
2022-10-02T18:07:48.214Z,811.75
2022-10-02T18:10:31.011Z,809.92
2022-10-02T18:13:14.987Z,827.47
2022-10-02T18:15:45.272Z,834.30
2022-10-02T18:18:19.395Z,830.63
2022-10-02T18:20:52.395Z,842.72
2022-10-02T18:23:30.922Z,842.95
2022-10-02T18:26:05.243Z,829.05
2022-10-02T18:28:51.122Z,828.88
2022-10-02T18:31:54.099Z,760.47
2022-10-02T18:34:26.614Z,835.55
2022-10-02T18:37:17.006Z,839.38
2022-10-02T18:39:50.945Z,806.95
2022-10-02T18:42:33.958Z,844.30
2022-10-02T18:45:25.119Z,840.83
2022-10-02T18:48:19.666Z,859.30
2022-10-02T18:51:06.456Z,834.92
2022-10-02T18:53:39.629Z,847.15
2022-10-02T18:56:07.819Z,849.67
2022-10-02T18:58:58.389Z,812.72
2022-10-02T19:01:43.871Z,843.10
2022-10-02T19:04:19.381Z,836.20
2022-10-02T19:07:06.700Z,858.92
2022-10-02T19:09:33.841Z,891.35
2022-10-02T19:12:06.316Z,903.92
2022-10-02T19:14:41.423Z,863.42
2022-10-02T19:17:16.859Z,864.97
2022-10-02T19:19:44.679Z,864.80
2022-10-02T19:22:19.752Z,834.15
2022-10-02T19:24:48.828Z,857.63
2022-10-02T19:27:23.174Z,870.08
2022-10-02T19:29:58.011Z,871.35
2022-10-02T19:32:32.131Z,873.30
2022-10-02T19:34:59.192Z,864.78
2022-10-02T19:37:26.998Z,872.30
2022-10-02T19:39:55.739Z,928.03
2022-10-02T19:42:26.781Z,865.80
2022-10-02T19:45:01.253Z,888.40
2022-10-02T19:47:32.276Z,891.70
2022-10-02T19:50:00.878Z,895.15
2022-10-02T19:52:35.901Z,901.00
2022-10-02T19:55:05.227Z,896.25
2022-10-02T19:57:36.154Z,915.13
2022-10-02T20:00:03.686Z,922.13
2022-10-02T20:02:37.984Z,884.85
2022-10-02T20:05:07.794Z,899.95
2022-10-02T20:07:37.493Z,901.08
2022-10-02T20:10:11.530Z,883.42
2022-10-02T20:12:41.441Z,904.83
2022-10-02T20:15:17.499Z,904.33
2022-10-02T20:17:44.649Z,886.00
2022-10-02T20:20:16.166Z,952.28
2022-10-02T20:25:15.161Z,952.80
2022-10-02T20:27:42.298Z,963.13
2022-10-02T20:30:20.120Z,883.40
2022-10-02T20:32:50.685Z,949.40
2022-10-02T20:35:34.653Z,898.10
2022-10-02T20:38:10.861Z,873.67
2022-10-02T20:40:38.196Z,936.60
2022-10-02T20:43:26.194Z,905.35
2022-10-02T20:46:13.603Z,944.28
2022-10-02T20:49:06.837Z,894.25
2022-10-02T20:51:52.910Z,897.42
2022-10-02T20:54:23.491Z,885.75
2022-10-02T20:56:59.299Z,891.38
2022-10-02T20:59:32.659Z,915.42
2022-10-02T21:01:59.741Z,876.10
2022-10-02T21:04:45.430Z,864.78
2022-10-02T21:07:34.933Z,879.45
2022-10-02T21:10:11.059Z,888.13
2022-10-02T21:13:00.416Z,872.20
2022-10-02T21:15:46.321Z,891.75
2022-10-02T21:18:26.957Z,900.83
2022-10-02T21:21:06.261Z,897.50
2022-10-02T21:23:33.321Z,898.88
2022-10-02T21:26:18.972Z,841.83
2022-10-02T21:28:46.115Z,859.92
2022-10-02T21:31:13.192Z,876.53
2022-10-02T21:33:41.295Z,875.17
2022-10-02T21:36:09.790Z,810.03
2022-10-02T21:38:55.206Z,851.00
2022-10-02T21:41:25.394Z,855.72
2022-10-02T21:44:04.689Z,847.42
2022-10-02T21:46:32.340Z,842.08
2022-10-02T21:49:18.177Z,794.70
2022-10-02T21:52:04.656Z,886.30
2022-10-02T21:54:50.209Z,917.63
2022-10-02T21:57:39.953Z,936.30
2022-10-02T22:00:23.910Z,933.92
2022-10-02T22:02:51.026Z,894.58
2022-10-02T22:05:21.380Z,901.10
2022-10-02T22:07:55.438Z,925.35
2022-10-02T22:10:25.815Z,938.28
2022-10-02T22:12:59.071Z,931.13
2022-10-02T22:15:32.716Z,898.58
2022-10-02T22:18:02.675Z,904.42
2022-10-02T22:20:32.809Z,896.35
2022-10-02T22:23:18.647Z,899.88
2022-10-02T22:25:58.649Z,893.80
2022-10-02T22:28:45.542Z,893.35
2022-10-02T22:31:12.663Z,895.88
2022-10-02T22:33:58.758Z,900.60
2022-10-02T22:36:44.822Z,900.17
2022-10-02T22:39:11.886Z,904.97
2022-10-02T22:41:42.523Z,899.05
2022-10-02T22:44:28.544Z,859.30
2022-10-02T22:46:58.920Z,882.80
2022-10-02T22:49:32.765Z,872.50
2022-10-02T22:52:03.597Z,875.15
2022-10-02T22:54:31.013Z,879.40
2022-10-02T22:57:04.107Z,874.78
2022-10-02T22:59:47.133Z,871.83
2022-10-02T23:02:40.629Z,864.88
2022-10-02T23:05:17.971Z,863.90
2022-10-02T23:07:47.577Z,910.60
2022-10-02T23:10:44.018Z,893.67
2022-10-02T23:13:11.140Z,864.42
2022-10-02T23:15:43.680Z,885.05
2022-10-02T23:18:37.425Z,887.45
2022-10-02T23:21:07.474Z,878.08
2022-10-02T23:23:43.487Z,872.70
2022-10-02T23:26:17.305Z,913.03
2022-10-02T23:28:48.018Z,931.75
2022-10-02T23:31:21.872Z,944.03
2022-10-02T23:33:49.095Z,908.30
2022-10-02T23:36:30.301Z,923.17
2022-10-02T23:38:57.449Z,927.65
2022-10-02T23:41:46.573Z,924.20
2022-10-02T23:44:32.364Z,915.20
2022-10-02T23:47:02.631Z,912.83
2022-10-02T23:49:56.002Z,929.17
2022-10-02T23:52:35.280Z,881.00
2022-10-02T23:55:08.222Z,880.72
2022-10-02T23:57:47.173Z,893.08
